createdAt,value
2018-11-13T00:00:20.491Z,99.90
2018-11-13T00:02:49.364Z,99.90
2018-11-13T00:05:17.569Z,99.90
2018-11-13T00:07:45.765Z,99.90
2018-11-13T00:10:14.240Z,99.90
2018-11-13T00:12:42.612Z,99.90
2018-11-13T00:15:11.168Z,99.90
2018-11-13T00:17:39.388Z,99.90
2018-11-13T00:20:09.567Z,99.90
2018-11-13T00:22:37.772Z,99.90
2018-11-13T00:25:07.139Z,99.90
2018-11-13T00:27:35.435Z,99.90
2018-11-13T00:30:03.592Z,99.90
2018-11-13T00:32:31.783Z,99.90
2018-11-13T00:34:59.987Z,99.90
2018-11-13T00:37:28.183Z,99.90
2018-11-13T00:39:56.632Z,99.90
2018-11-13T00:42:24.836Z,99.90
2018-11-13T00:44:53.058Z,99.90
2018-11-13T00:47:21.255Z,99.90
2018-11-13T00:49:49.484Z,99.90
2018-11-13T00:52:17.754Z,99.90
2018-11-13T00:54:45.980Z,99.90
2018-11-13T00:57:14.132Z,99.90
2018-11-13T00:59:42.335Z,99.90
2018-11-13T01:02:10.520Z,99.90
2018-11-13T01:04:38.733Z,99.90
2018-11-13T01:07:07.116Z,99.90
2018-11-13T01:09:35.292Z,99.90
2018-11-13T01:12:03.488Z,99.90
2018-11-13T01:14:31.677Z,99.90
2018-11-13T01:16:59.928Z,99.90
2018-11-13T01:19:28.188Z,99.90
2018-11-13T01:21:56.388Z,99.90
2018-11-13T01:24:24.852Z,99.90
2018-11-13T01:26:53.039Z,99.90
2018-11-13T01:29:21.248Z,99.90
2018-11-13T01:31:49.463Z,99.90
2018-11-13T01:34:17.667Z,99.90
2018-11-13T01:36:45.892Z,99.90
2018-11-13T01:39:14.099Z,99.90
2018-11-13T01:41:42.334Z,99.90
2018-11-13T01:44:10.495Z,99.90
2018-11-13T01:46:38.693Z,99.90
2018-11-13T01:49:06.884Z,99.90
2018-11-13T01:51:35.088Z,99.90
2018-11-13T01:54:03.339Z,99.90
2018-11-13T01:56:31.520Z,99.90
2018-11-13T01:58:59.691Z,99.90
2018-11-13T02:01:27.887Z,99.90
2018-11-13T02:03:56.344Z,99.90
2018-11-13T02:06:24.544Z,99.90
2018-11-13T02:08:52.727Z,99.90
2018-11-13T02:11:20.983Z,99.90
2018-11-13T02:13:49.159Z,99.90
2018-11-13T02:16:17.385Z,99.90
2018-11-13T02:18:45.571Z,99.90
2018-11-13T02:21:13.757Z,99.90
2018-11-13T02:23:42.823Z,99.90
2018-11-13T02:26:11.023Z,99.90
2018-11-13T02:28:39.244Z,99.90
2018-11-13T02:31:07.440Z,99.90
2018-11-13T02:33:35.613Z,99.90
2018-11-13T02:36:03.796Z,99.90
2018-11-13T02:38:32.340Z,99.90
2018-11-13T02:41:00.535Z,99.90
2018-11-13T02:43:28.737Z,99.90
2018-11-13T02:45:56.935Z,99.90
2018-11-13T02:48:25.144Z,99.90
2018-11-13T02:50:53.380Z,99.90
2018-11-13T02:53:21.555Z,99.90
2018-11-13T02:55:49.732Z,99.90
2018-11-13T02:58:17.941Z,99.90
2018-11-13T03:00:46.131Z,99.90
2018-11-13T03:03:14.332Z,99.90
2018-11-13T03:05:42.502Z,99.90
2018-11-13T03:08:10.703Z,99.90
2018-11-13T03:10:38.986Z,99.90
2018-11-13T03:13:07.180Z,99.90
2018-11-13T03:15:36.031Z,99.90
2018-11-13T03:18:04.214Z,99.90
2018-11-13T03:20:32.418Z,99.90
2018-11-13T03:23:00.605Z,99.90
2018-11-13T03:25:32.048Z,99.90
2018-11-13T03:28:01.123Z,99.90
2018-11-13T03:30:29.311Z,99.90
2018-11-13T03:32:57.503Z,99.90
2018-11-13T03:35:26.019Z,99.90
2018-11-13T03:37:54.335Z,99.90
2018-11-13T03:40:22.496Z,99.90
2018-11-13T03:42:50.973Z,99.90
2018-11-13T03:45:19.460Z,99.90
2018-11-13T03:47:47.695Z,99.90
2018-11-13T03:50:19.921Z,99.90
2018-11-13T03:52:48.191Z,99.90
2018-11-13T03:55:16.921Z,99.90
2018-11-13T03:57:45.703Z,99.90
2018-11-13T04:00:15.231Z,99.90
2018-11-13T04:02:43.450Z,99.90
2018-11-13T04:05:13.958Z,99.90
2018-11-13T04:07:43.461Z,99.90
2018-11-13T04:10:14.619Z,99.90
2018-11-13T04:12:42.999Z,99.90
2018-11-13T04:15:13.051Z,99.90
2018-11-13T04:17:41.327Z,99.90
2018-11-13T04:20:11.459Z,99.90
2018-11-13T04:22:39.762Z,99.90
2018-11-13T04:25:08.404Z,99.90
2018-11-13T04:27:36.739Z,99.90
2018-11-13T04:30:05.342Z,99.90
2018-11-13T04:32:33.551Z,99.90
2018-11-13T04:35:01.754Z,99.90
2018-11-13T04:37:30.273Z,99.90
2018-11-13T04:39:58.439Z,99.90
2018-11-13T04:42:26.670Z,99.90
2018-11-13T04:44:54.980Z,99.90
2018-11-13T04:47:23.196Z,99.90
2018-11-13T04:49:51.364Z,99.90
2018-11-13T04:52:19.595Z,99.90
2018-11-13T04:54:47.795Z,99.90
2018-11-13T04:57:15.975Z,99.90
2018-11-13T04:59:44.166Z,99.90
2018-11-13T05:02:12.432Z,99.90
2018-11-13T05:04:40.622Z,99.90
2018-11-13T05:07:08.803Z,99.90
2018-11-13T05:09:37.039Z,99.90
2018-11-13T05:12:05.367Z,99.90
2018-11-13T05:14:33.564Z,99.90
2018-11-13T05:17:01.743Z,99.90
2018-11-13T05:19:30.023Z,99.90
2018-11-13T05:21:58.227Z,99.90
2018-11-13T05:24:26.407Z,99.90
2018-11-13T05:26:54.593Z,99.90
2018-11-13T05:29:22.808Z,99.90
2018-11-13T05:31:50.982Z,99.90
2018-11-13T05:34:19.479Z,99.90
2018-11-13T05:36:47.678Z,99.90
2018-11-13T05:39:15.939Z,99.90
2018-11-13T05:41:44.255Z,99.90
2018-11-13T05:44:12.405Z,99.90
2018-11-13T05:46:40.610Z,99.90
2018-11-13T05:49:08.793Z,99.90
2018-11-13T05:51:37.003Z,99.90
2018-11-13T05:54:05.392Z,99.90
2018-11-13T05:56:33.661Z,99.90
2018-11-13T05:59:01.863Z,99.90
2018-11-13T06:01:30.136Z,99.90
2018-11-13T06:03:58.599Z,99.90
2018-11-13T06:06:26.810Z,99.90
2018-11-13T06:08:54.999Z,99.90
2018-11-13T06:11:23.442Z,99.90
2018-11-13T06:13:51.640Z,99.90
2018-11-13T06:16:19.803Z,99.90
2018-11-13T06:18:47.988Z,99.90
2018-11-13T06:21:16.163Z,99.90
2018-11-13T06:23:44.358Z,99.90
2018-11-13T06:26:12.555Z,99.90
2018-11-13T06:28:40.735Z,99.90
2018-11-13T06:31:09.157Z,99.90
2018-11-13T06:33:37.347Z,99.90
2018-11-13T06:36:05.694Z,99.90
2018-11-13T06:50:24.447Z,99.90
2018-11-13T06:52:52.660Z,99.90
2018-11-13T06:55:24.628Z,99.90
2018-11-13T06:57:52.871Z,99.90
2018-11-13T07:00:21.087Z,99.90
2018-11-13T07:02:49.312Z,99.90
2018-11-13T07:05:18.256Z,99.90
2018-11-13T07:07:46.770Z,99.90
2018-11-13T07:10:17.200Z,99.90
2018-11-13T07:12:46.739Z,99.90
2018-11-13T07:15:16.564Z,99.90
2018-11-13T07:17:46.048Z,99.90
2018-11-13T07:20:14.976Z,99.90
2018-11-13T07:22:43.440Z,99.90
2018-11-13T07:25:11.987Z,99.90
2018-11-13T07:27:40.781Z,99.90
2018-11-13T07:30:10.572Z,99.90
2018-11-13T07:32:39.372Z,99.90
2018-11-13T07:35:08.475Z,99.90
2018-11-13T07:37:36.728Z,99.90
2018-11-13T07:40:05.292Z,99.90
2018-11-13T07:42:33.491Z,99.90
2018-11-13T07:45:01.996Z,99.90
2018-11-13T07:47:30.407Z,99.90
2018-11-13T07:49:58.466Z,99.90
2018-11-13T07:52:26.676Z,99.90
2018-11-13T07:54:54.880Z,99.90
2018-11-13T07:57:23.083Z,99.90
2018-11-13T07:59:51.280Z,99.90
2018-11-13T08:02:19.484Z,99.90
2018-11-13T08:04:47.707Z,99.90
2018-11-13T08:07:15.943Z,99.90
2018-11-13T08:09:44.331Z,99.90
2018-11-13T08:12:12.521Z,99.90
2018-11-13T08:14:40.720Z,99.90
2018-11-13T08:17:08.916Z,99.90
2018-11-13T08:19:37.133Z,99.90
2018-11-13T08:22:05.612Z,99.90
2018-11-13T08:24:33.748Z,99.90
2018-11-13T08:27:01.985Z,99.90
2018-11-13T08:29:30.179Z,99.90
2018-11-13T08:31:58.398Z,99.90
2018-11-13T08:34:26.636Z,99.90
2018-11-13T08:36:54.842Z,99.90
2018-11-13T08:39:23.175Z,99.90
2018-11-13T08:41:51.395Z,99.90
2018-11-13T08:44:19.670Z,99.90
2018-11-13T08:46:47.806Z,99.90
2018-11-13T08:49:15.992Z,99.90
2018-11-13T08:51:44.211Z,99.90
2018-11-13T08:54:12.405Z,99.90
2018-11-13T08:56:40.608Z,99.90
2018-11-13T08:59:08.860Z,99.90
2018-11-13T09:01:36.998Z,99.90
2018-11-13T09:04:05.393Z,99.90
2018-11-13T09:06:33.620Z,99.90
2018-11-13T09:09:01.844Z,99.90
2018-11-13T09:11:30.105Z,99.90
2018-11-13T09:13:58.305Z,99.90
2018-11-13T09:16:26.538Z,99.90
2018-11-13T09:18:54.827Z,99.90
2018-11-13T09:21:22.952Z,99.90
2018-11-13T09:23:51.148Z,99.90
2018-11-13T09:26:19.402Z,99.90
2018-11-13T09:28:47.643Z,99.90
2018-11-13T09:31:15.902Z,99.90
2018-11-13T09:33:44.136Z,99.90
2018-11-13T09:36:12.364Z,99.90
2018-11-13T09:38:40.824Z,99.90
2018-11-13T09:41:09.018Z,99.90
2018-11-13T09:43:37.203Z,99.90
2018-11-13T09:46:05.765Z,99.90
2018-11-13T09:48:33.875Z,99.90
2018-11-13T09:51:02.372Z,99.90
2018-11-13T09:53:30.690Z,99.90
2018-11-13T09:55:58.776Z,99.90
2018-11-13T09:58:26.991Z,99.90
2018-11-13T10:00:55.461Z,99.90
2018-11-13T10:03:24.290Z,99.90
2018-11-13T10:05:52.014Z,99.90
2018-11-13T10:08:20.176Z,99.90
2018-11-13T10:10:48.465Z,99.90
2018-11-13T10:13:16.853Z,99.90
2018-11-13T10:15:45.053Z,99.90
2018-11-13T10:18:13.393Z,99.90
2018-11-13T10:20:41.452Z,99.90
2018-11-13T10:23:09.676Z,99.90
2018-11-13T10:25:37.899Z,99.90
2018-11-13T10:28:06.146Z,99.90
2018-11-13T10:30:34.332Z,99.90
2018-11-13T10:33:02.553Z,99.90
2018-11-13T10:35:30.848Z,99.90
2018-11-13T10:37:59.057Z,99.90
2018-11-13T10:40:27.312Z,99.90
2018-11-13T10:42:55.719Z,99.90
2018-11-13T10:45:25.227Z,99.90
2018-11-13T10:47:53.473Z,99.90
2018-11-13T10:50:23.167Z,99.90
2018-11-13T10:52:51.317Z,99.90
2018-11-13T10:55:19.605Z,99.90
2018-11-13T10:57:47.816Z,99.90
2018-11-13T11:00:21.943Z,99.90
2018-11-13T11:02:55.706Z,99.90
2018-11-13T11:05:25.932Z,99.90
2018-11-13T11:07:54.269Z,99.90
2018-11-13T11:10:22.472Z,99.90
2018-11-13T11:12:50.729Z,99.90
2018-11-13T11:15:18.882Z,99.90
2018-11-13T11:17:47.113Z,99.90
2018-11-13T11:20:15.301Z,99.90
2018-11-13T11:22:43.569Z,99.90
2018-11-13T11:25:12.687Z,99.90
2018-11-13T11:27:40.801Z,99.90
2018-11-13T11:30:12.310Z,99.90
2018-11-13T11:32:40.511Z,99.90
2018-11-13T11:35:08.728Z,99.90
2018-11-13T11:37:37.844Z,99.90
2018-11-13T11:40:06.145Z,99.90
2018-11-13T11:42:34.334Z,99.90
2018-11-13T11:45:02.560Z,99.90
2018-11-13T11:47:31.040Z,99.80
2018-11-13T11:49:59.294Z,99.70
2018-11-13T11:52:27.481Z,99.70
2018-11-13T11:54:55.712Z,99.70
2018-11-13T11:57:23.913Z,99.50
2018-11-13T11:59:52.107Z,99.40
2018-11-13T12:02:20.462Z,99.40
2018-11-13T12:04:48.625Z,99.40
2018-11-13T12:07:16.816Z,99.40
2018-11-13T12:09:45.005Z,99.40
2018-11-13T12:12:13.268Z,99.10
2018-11-13T12:14:41.408Z,99.00
2018-11-13T12:17:09.645Z,98.90
2018-11-13T12:19:37.870Z,98.60
2018-11-13T12:22:06.107Z,98.60
2018-11-13T12:24:34.328Z,98.50
2018-11-13T12:27:02.620Z,98.50
2018-11-13T12:29:30.854Z,98.10
2018-11-13T12:31:59.073Z,97.90
2018-11-13T12:34:27.312Z,97.40
2018-11-13T12:36:55.487Z,97.20
2018-11-13T12:39:23.676Z,96.30
2018-11-13T12:41:51.884Z,95.60
2018-11-13T12:44:20.412Z,95.10
2018-11-13T12:46:48.611Z,95.10
2018-11-13T12:49:16.854Z,95.00
2018-11-13T12:51:50.700Z,94.80
2018-11-13T12:54:18.916Z,94.80
2018-11-13T12:56:47.156Z,94.60
2018-11-13T12:59:15.366Z,94.40
2018-11-13T13:01:43.604Z,94.20
2018-11-13T13:04:11.842Z,94.20
2018-11-13T13:06:40.048Z,94.40
2018-11-13T13:09:09.325Z,94.20
2018-11-13T13:11:37.524Z,94.30
2018-11-13T13:14:11.220Z,94.30
2018-11-13T13:16:39.423Z,94.20
2018-11-13T13:19:07.640Z,94.20
2018-11-13T13:21:35.976Z,94.40
2018-11-13T13:24:04.167Z,94.40
2018-11-13T13:26:32.353Z,94.40
2018-11-13T13:29:00.585Z,94.40
2018-11-13T13:31:28.826Z,94.40
2018-11-13T13:33:57.072Z,94.70
2018-11-13T13:36:25.280Z,94.30
2018-11-13T13:38:53.558Z,94.30
2018-11-13T13:41:21.732Z,94.30
2018-11-13T13:43:49.931Z,94.10
2018-11-13T13:46:18.142Z,93.80
2018-11-13T13:48:46.420Z,93.40
2018-11-13T13:51:14.629Z,93.40
2018-11-13T13:53:42.901Z,93.40
2018-11-13T13:56:11.112Z,93.30
2018-11-13T13:58:39.303Z,93.40
2018-11-13T14:01:07.529Z,93.50
2018-11-13T14:03:35.740Z,93.80
2018-11-13T14:06:03.985Z,94.10
2018-11-13T14:08:32.183Z,94.30
2018-11-13T14:11:00.358Z,94.50
2018-11-13T14:13:28.568Z,94.60
2018-11-13T14:15:56.779Z,94.60
2018-11-13T14:18:24.997Z,94.70
2018-11-13T14:20:53.249Z,94.60
2018-11-13T14:23:21.417Z,94.60
2018-11-13T14:25:49.657Z,94.60
2018-11-13T14:28:17.864Z,94.90
2018-11-13T14:30:46.059Z,95.10
2018-11-13T14:33:14.318Z,95.20
2018-11-13T14:35:42.612Z,95.40
2018-11-13T14:38:10.783Z,95.70
2018-11-13T14:40:46.464Z,95.90
2018-11-13T14:43:14.911Z,96.00
2018-11-13T14:45:43.498Z,96.00
2018-11-13T14:48:12.032Z,96.00
2018-11-13T14:50:41.116Z,96.10
2018-11-13T14:53:09.970Z,96.20
2018-11-13T14:55:39.629Z,96.40
2018-11-13T14:58:09.404Z,96.00
2018-11-13T15:00:38.248Z,96.10
2018-11-13T15:03:07.524Z,96.10
2018-11-13T15:05:36.196Z,96.20
2018-11-13T15:08:05.618Z,96.20
2018-11-13T15:10:35.979Z,96.20
2018-11-13T15:13:04.415Z,96.10
2018-11-13T15:15:32.758Z,96.00
2018-11-13T15:18:01.248Z,95.90
2018-11-13T15:20:29.435Z,96.00
2018-11-13T15:22:57.830Z,96.00
2018-11-13T15:25:26.213Z,96.00
2018-11-13T15:27:54.400Z,96.00
2018-11-13T15:30:24.487Z,96.00
2018-11-13T15:32:54.299Z,96.10
2018-11-13T15:35:22.508Z,96.30
2018-11-13T15:37:50.724Z,96.50
2018-11-13T15:40:21.492Z,96.70
2018-11-13T15:42:49.695Z,97.00
2018-11-13T15:45:18.650Z,97.20
2018-11-13T15:47:47.624Z,97.30
2018-11-13T15:50:17.928Z,97.50
2018-11-13T15:52:46.140Z,97.60
2018-11-13T15:55:14.848Z,97.90
2018-11-13T15:57:43.632Z,98.10
2018-11-13T16:00:16.987Z,98.30
2018-11-13T16:02:45.468Z,98.50
2018-11-13T16:05:24.625Z,98.70
2018-11-13T16:07:55.044Z,99.20
2018-11-13T16:10:23.318Z,98.90
2018-11-13T16:12:51.569Z,99.10
2018-11-13T16:15:20.924Z,99.30
2018-11-13T16:17:49.715Z,99.60
2018-11-13T16:20:18.228Z,99.70
2018-11-13T16:22:46.527Z,99.80
2018-11-13T16:25:14.720Z,99.90
2018-11-13T16:27:42.907Z,99.90
2018-11-13T16:30:13.240Z,99.90
2018-11-13T16:32:42.108Z,99.90
2018-11-13T16:35:11.637Z,99.90
2018-11-13T16:37:41.248Z,99.90
2018-11-13T16:40:11.909Z,99.90
2018-11-13T16:42:40.996Z,99.90
2018-11-13T16:45:10.090Z,99.90
2018-11-13T16:47:38.501Z,99.90
2018-11-13T16:50:19.503Z,99.90
2018-11-13T16:52:47.700Z,99.90
2018-11-13T16:55:21.220Z,99.90
2018-11-13T16:57:51.132Z,99.90
2018-11-13T17:00:19.824Z,99.90
2018-11-13T17:02:48.217Z,99.90
2018-11-13T17:05:17.356Z,99.90
2018-11-13T17:07:45.524Z,99.90
2018-11-13T17:10:15.340Z,99.90
2018-11-13T17:12:43.807Z,99.90
2018-11-13T17:15:15.079Z,99.90
2018-11-13T17:17:43.851Z,99.90
2018-11-13T17:20:12.849Z,99.90
2018-11-13T17:22:41.944Z,99.90
2018-11-13T17:25:11.399Z,99.90
2018-11-13T17:27:41.904Z,99.90
2018-11-13T17:30:15.429Z,99.90
2018-11-13T17:32:44.372Z,99.90
2018-11-13T17:35:13.845Z,99.90
2018-11-13T17:37:42.392Z,99.90
2018-11-13T17:40:12.940Z,99.90
2018-11-13T17:42:41.266Z,99.90
2018-11-13T17:45:13.372Z,99.90
2018-11-13T17:47:41.604Z,99.90
2018-11-13T17:50:12.808Z,99.90
2018-11-13T17:52:41.324Z,99.90
2018-11-13T17:55:10.269Z,99.90
2018-11-13T17:57:38.476Z,99.90
2018-11-13T18:00:11.568Z,99.90
2018-11-13T18:02:39.836Z,99.90
2018-11-13T18:05:08.648Z,99.90
2018-11-13T18:07:36.936Z,99.90
2018-11-13T18:10:05.528Z,99.90
2018-11-13T18:12:33.744Z,99.90
2018-11-13T18:15:01.971Z,99.90
2018-11-13T18:17:30.267Z,99.90
2018-11-13T18:19:58.452Z,99.90
2018-11-13T18:22:26.648Z,99.90
2018-11-13T18:24:54.873Z,99.90
2018-11-13T18:27:23.074Z,99.90
2018-11-13T18:29:51.952Z,99.90
2018-11-13T18:32:20.432Z,99.90
2018-11-13T18:34:48.811Z,99.90
2018-11-13T18:37:17.094Z,99.90
2018-11-13T18:39:45.533Z,99.90
2018-11-13T18:42:14.173Z,99.90
2018-11-13T18:44:42.527Z,99.90
2018-11-13T18:47:10.712Z,99.90
2018-11-13T18:49:39.056Z,99.90
2018-11-13T18:52:07.758Z,99.90
2018-11-13T18:54:36.114Z,99.90
2018-11-13T18:57:04.769Z,99.90
2018-11-13T18:59:33.517Z,99.90
2018-11-13T19:02:01.288Z,99.90
2018-11-13T19:04:30.086Z,99.90
2018-11-13T19:06:59.892Z,99.90
2018-11-13T19:09:30.706Z,99.90
2018-11-13T19:12:01.055Z,99.90
2018-11-13T19:14:31.805Z,99.90
2018-11-13T19:17:03.088Z,99.90
2018-11-13T19:19:34.286Z,99.90
2018-11-13T19:22:05.640Z,99.90
2018-11-13T19:24:36.579Z,99.90
2018-11-13T19:27:08.088Z,99.90
2018-11-13T19:29:39.295Z,99.90
2018-11-13T19:32:09.842Z,99.90
2018-11-13T19:34:40.625Z,99.90
2018-11-13T19:37:11.914Z,99.90
2018-11-13T19:39:43.278Z,99.90
2018-11-13T19:42:14.148Z,99.90
2018-11-13T19:44:45.436Z,99.90
2018-11-13T19:47:16.423Z,99.90
2018-11-13T19:49:48.447Z,99.90
2018-11-13T19:52:19.962Z,99.90
2018-11-13T19:54:51.197Z,99.90
2018-11-13T19:57:22.338Z,99.90
2018-11-13T19:59:53.281Z,99.90
2018-11-13T20:02:24.681Z,99.90
2018-11-13T20:04:55.949Z,99.90
2018-11-13T20:07:27.333Z,99.90
2018-11-13T20:09:58.332Z,99.90
2018-11-13T20:12:29.535Z,99.90
2018-11-13T20:15:00.689Z,99.90
2018-11-13T20:17:32.010Z,99.90
2018-11-13T20:20:02.973Z,99.90
2018-11-13T20:22:34.295Z,99.90
2018-11-13T20:25:05.669Z,99.90
2018-11-13T20:27:37.169Z,99.90
2018-11-13T20:30:09.449Z,99.90
2018-11-13T20:32:41.258Z,99.90
2018-11-13T20:35:13.341Z,99.90
2018-11-13T20:37:46.205Z,99.90
2018-11-13T20:40:23.975Z,99.90
2018-11-13T20:42:55.996Z,99.90
2018-11-13T20:45:26.796Z,99.90
2018-11-13T20:47:58.325Z,99.90
2018-11-13T20:50:30.809Z,99.90
2018-11-13T20:53:02.164Z,99.90
2018-11-13T20:55:33.281Z,99.90
2018-11-13T20:58:04.709Z,99.90
2018-11-13T21:00:37.634Z,99.90
2018-11-13T21:03:08.852Z,99.90
2018-11-13T21:05:39.948Z,99.90
2018-11-13T21:08:11.219Z,99.90
2018-11-13T21:10:42.346Z,99.90
2018-11-13T21:13:13.748Z,99.90
2018-11-13T21:15:45.173Z,99.90
2018-11-13T21:18:15.678Z,99.90
2018-11-13T21:20:46.648Z,99.90
2018-11-13T21:23:17.468Z,99.90
2018-11-13T21:25:47.052Z,99.90
2018-11-13T21:28:15.807Z,99.90
2018-11-13T21:30:44.796Z,99.90
2018-11-13T21:33:13.015Z,99.90
2018-11-13T21:35:41.336Z,99.90
2018-11-13T21:38:09.617Z,99.90
2018-11-13T21:40:37.838Z,99.90
2018-11-13T21:43:06.117Z,99.90
2018-11-13T21:45:34.319Z,99.90
2018-11-13T21:48:02.823Z,99.90
2018-11-13T21:50:31.023Z,99.90
2018-11-13T21:52:59.216Z,99.90
2018-11-13T21:55:28.494Z,99.90
2018-11-13T21:57:56.695Z,99.90
2018-11-13T22:00:27.903Z,99.90
2018-11-13T22:02:59.346Z,99.90
2018-11-13T22:05:28.613Z,99.90
2018-11-13T22:07:56.830Z,99.90
2018-11-13T22:10:25.010Z,99.90
2018-11-13T22:12:53.223Z,99.90
2018-11-13T22:15:22.850Z,99.90
2018-11-13T22:17:50.911Z,99.90
2018-11-13T22:20:19.843Z,99.90
2018-11-13T22:22:48.976Z,99.90
2018-11-13T22:25:19.768Z,99.90
2018-11-13T22:27:49.042Z,99.90
2018-11-13T22:30:32.156Z,99.90
2018-11-13T22:33:00.368Z,99.90
2018-11-13T22:35:28.602Z,99.90
2018-11-13T22:37:56.854Z,99.90
2018-11-13T22:40:26.524Z,99.90
2018-11-13T22:42:54.785Z,99.90
2018-11-13T22:45:25.259Z,99.90
2018-11-13T22:47:53.746Z,99.90
2018-11-13T22:50:24.395Z,99.90
2018-11-13T22:52:53.180Z,99.90
2018-11-13T22:55:21.572Z,99.90
2018-11-13T22:57:50.932Z,99.90
2018-11-13T23:00:20.328Z,99.90
2018-11-13T23:02:50.297Z,99.90
2018-11-13T23:05:18.339Z,99.90
2018-11-13T23:07:46.556Z,99.90
2018-11-13T23:10:15.457Z,99.90
2018-11-13T23:12:44.106Z,99.90
2018-11-13T23:15:13.831Z,99.90
2018-11-13T23:17:42.862Z,99.90
2018-11-13T23:20:12.656Z,99.90
2018-11-13T23:22:40.851Z,99.90
2018-11-13T23:25:10.941Z,99.90
2018-11-13T23:27:39.140Z,99.90
2018-11-13T23:30:10.781Z,99.90
2018-11-13T23:32:39.014Z,99.90
2018-11-13T23:35:07.928Z,99.90
2018-11-13T23:37:36.208Z,99.90
2018-11-13T23:40:04.886Z,99.90
2018-11-13T23:42:33.367Z,99.90
2018-11-13T23:45:01.677Z,99.90
2018-11-13T23:47:29.880Z,99.90
2018-11-13T23:49:58.421Z,99.90
2018-11-13T23:52:26.292Z,99.90
2018-11-13T23:54:54.488Z,99.90
2018-11-13T23:57:22.702Z,99.90
2018-11-13T23:59:50.912Z,99.90
